createdAt,value
2023-09-13T00:00:32.444Z,56.94
2023-09-13T00:02:59.122Z,56.77
2023-09-13T00:05:25.760Z,57.01
2023-09-13T00:07:52.333Z,56.89
2023-09-13T00:10:19.974Z,57.09
2023-09-13T00:12:46.736Z,56.89
2023-09-13T00:15:13.742Z,57.04
2023-09-13T00:17:40.379Z,57.08
2023-09-13T00:20:08.750Z,56.88
2023-09-13T00:22:35.390Z,56.75
2023-09-13T00:25:02.054Z,56.98
2023-09-13T00:27:28.663Z,56.76
2023-09-13T00:29:55.232Z,56.66
2023-09-13T00:32:21.777Z,56.84
2023-09-13T00:34:48.324Z,56.89
2023-09-13T00:37:15.072Z,57.04
2023-09-13T00:39:41.741Z,56.93
2023-09-13T00:42:08.341Z,56.94
2023-09-13T00:44:34.981Z,56.65
2023-09-13T00:47:01.614Z,56.68
2023-09-13T00:49:28.421Z,56.81
2023-09-13T00:51:58.742Z,57.11
2023-09-13T00:54:26.604Z,56.83
2023-09-13T00:56:53.616Z,57.10
2023-09-13T00:59:20.750Z,56.78
2023-09-13T01:01:47.637Z,56.67
2023-09-13T01:04:14.940Z,56.67
2023-09-13T01:06:42.695Z,56.81
2023-09-13T01:09:09.356Z,56.79
2023-09-13T01:11:35.889Z,56.53
2023-09-13T01:14:03.117Z,56.80
2023-09-13T01:16:40.701Z,57.11
2023-09-13T01:19:43.387Z,57.02
2023-09-13T01:22:39.063Z,56.76
2023-09-13T01:25:27.018Z,56.62
2023-09-13T01:28:30.167Z,56.71
2023-09-13T01:30:57.344Z,56.61
2023-09-13T01:33:24.199Z,56.72
2023-09-13T01:35:52.143Z,56.77
2023-09-13T01:38:18.672Z,56.73
2023-09-13T01:40:47.543Z,56.85
2023-09-13T01:43:15.145Z,56.95
2023-09-13T01:45:42.581Z,56.65
2023-09-13T01:48:11.069Z,56.83
2023-09-13T01:50:39.679Z,56.66
2023-09-13T01:53:06.302Z,57.01
2023-09-13T01:55:36.382Z,56.88
2023-09-13T01:58:03.278Z,56.78
2023-09-13T02:00:29.876Z,56.75
2023-09-13T02:02:56.514Z,56.75
2023-09-13T02:05:23.162Z,56.88
2023-09-13T02:07:49.698Z,56.75
2023-09-13T02:10:16.386Z,57.07
2023-09-13T02:12:43.043Z,56.83
2023-09-13T02:15:10.314Z,56.80
2023-09-13T02:17:36.880Z,57.03
2023-09-13T02:20:05.796Z,56.93
2023-09-13T02:22:34.666Z,56.68
2023-09-13T02:25:01.729Z,56.89
2023-09-13T02:27:28.341Z,56.63
2023-09-13T02:29:54.879Z,56.61
2023-09-13T02:32:21.415Z,56.81
2023-09-13T02:34:47.945Z,56.54
2023-09-13T02:37:14.709Z,56.94
2023-09-13T02:39:43.084Z,56.84
2023-09-13T02:42:10.013Z,56.80
2023-09-13T02:44:36.921Z,56.94
2023-09-13T02:47:03.964Z,56.73
2023-09-13T02:49:30.775Z,56.65
2023-09-13T02:51:57.598Z,56.75
2023-09-13T02:54:24.224Z,56.86
2023-09-13T02:56:51.989Z,56.69
2023-09-13T02:59:18.573Z,56.88
2023-09-13T03:01:45.320Z,56.72
2023-09-13T03:04:13.058Z,56.87
2023-09-13T03:06:42.482Z,56.94
2023-09-13T03:09:09.281Z,56.75
2023-09-13T03:11:37.223Z,57.03
2023-09-13T03:14:04.798Z,56.86
2023-09-13T03:16:31.456Z,56.90
2023-09-13T03:18:58.598Z,56.95
2023-09-13T03:21:25.869Z,56.80
2023-09-13T03:23:52.783Z,56.95
2023-09-13T03:26:24.486Z,56.79
2023-09-13T03:28:53.264Z,56.82
2023-09-13T03:31:22.581Z,56.99
2023-09-13T03:33:51.593Z,56.85
2023-09-13T03:36:18.691Z,56.90
2023-09-13T03:38:47.543Z,56.82
2023-09-13T03:41:19.709Z,56.83
2023-09-13T03:43:46.907Z,57.02
2023-09-13T03:46:14.327Z,56.67
2023-09-13T03:48:41.174Z,56.74
2023-09-13T03:51:08.648Z,56.84
2023-09-13T03:53:36.146Z,56.95
2023-09-13T03:56:03.940Z,56.81
2023-09-13T03:58:30.508Z,56.54
2023-09-13T04:00:58.063Z,56.63
2023-09-13T04:03:25.369Z,56.80
2023-09-13T04:05:52.306Z,56.96
2023-09-13T04:08:19.068Z,56.90
2023-09-13T04:10:45.733Z,57.06
2023-09-13T04:13:12.451Z,57.09
2023-09-13T04:15:39.006Z,56.98
2023-09-13T04:18:06.274Z,57.28
2023-09-13T04:20:34.743Z,57.27
2023-09-13T04:23:02.983Z,57.39
2023-09-13T04:25:30.016Z,57.21
2023-09-13T04:27:56.870Z,57.28
2023-09-13T04:30:23.523Z,57.40
2023-09-13T04:32:50.145Z,57.30
2023-09-13T04:35:16.820Z,57.54
2023-09-13T04:37:43.486Z,57.52
2023-09-13T04:40:10.251Z,57.54
2023-09-13T04:42:38.605Z,57.25
2023-09-13T04:45:05.912Z,57.28
2023-09-13T04:47:32.626Z,57.48
2023-09-13T04:49:59.376Z,57.67
2023-09-13T04:52:26.036Z,57.76
2023-09-13T04:54:52.695Z,57.76
2023-09-13T04:57:19.290Z,57.75
2023-09-13T04:59:47.295Z,57.81
2023-09-13T05:02:14.103Z,57.79
2023-09-13T05:04:41.105Z,58.04
2023-09-13T05:07:07.851Z,57.77
2023-09-13T05:09:36.574Z,58.04
2023-09-13T05:12:03.285Z,57.73
2023-09-13T05:14:29.948Z,57.68
2023-09-13T05:16:56.542Z,57.82
2023-09-13T05:19:23.361Z,58.12
2023-09-13T05:21:50.086Z,58.24
2023-09-13T05:24:16.676Z,58.10
2023-09-13T05:26:43.232Z,58.05
2023-09-13T05:29:09.847Z,58.37
2023-09-13T05:31:37.255Z,58.08
2023-09-13T05:34:03.915Z,58.11
2023-09-13T05:36:30.749Z,58.32
2023-09-13T05:38:57.331Z,58.20
2023-09-13T05:41:24.145Z,58.21
2023-09-13T05:43:51.125Z,58.28
2023-09-13T05:46:17.991Z,58.45
2023-09-13T05:48:44.582Z,58.39
2023-09-13T05:51:11.207Z,58.18
2023-09-13T05:53:38.455Z,58.14
2023-09-13T05:56:05.207Z,58.23
2023-09-13T05:58:31.827Z,57.96
2023-09-13T06:00:58.934Z,57.75
2023-09-13T06:03:25.914Z,57.76
2023-09-13T06:05:52.645Z,57.58
2023-09-13T06:08:19.463Z,57.95
2023-09-13T06:10:49.965Z,58.08
2023-09-13T06:13:16.742Z,58.08
2023-09-13T06:15:43.580Z,58.46
2023-09-13T06:18:10.342Z,58.37
2023-09-13T06:20:37.248Z,58.51
2023-09-13T06:23:03.934Z,58.48
2023-09-13T06:25:30.507Z,58.83
2023-09-13T06:27:57.153Z,58.66
2023-09-13T06:30:23.989Z,58.80
2023-09-13T06:33:08.550Z,59.01
2023-09-13T06:35:38.609Z,59.06
2023-09-13T06:38:06.619Z,58.83
2023-09-13T06:40:36.191Z,58.86
2023-09-13T06:43:03.690Z,58.90
2023-09-13T06:45:31.379Z,58.90
2023-09-13T06:47:59.595Z,58.79
2023-09-13T06:50:44.867Z,58.90
2023-09-13T06:53:26.504Z,59.07
2023-09-13T06:56:02.399Z,59.05
2023-09-13T06:58:33.710Z,59.03
2023-09-13T07:03:31.479Z,59.05
2023-09-13T07:06:01.405Z,59.14
2023-09-13T07:08:28.109Z,59.08
2023-09-13T07:10:54.737Z,59.02
2023-09-13T07:13:21.318Z,59.19
2023-09-13T07:15:48.999Z,59.21
2023-09-13T07:18:16.177Z,59.09
2023-09-13T07:20:42.820Z,58.89
2023-09-13T07:23:10.353Z,58.77
2023-09-13T07:25:37.291Z,58.64
2023-09-13T07:28:04.204Z,58.73
2023-09-13T07:30:30.743Z,59.28
2023-09-13T07:32:57.417Z,59.17
2023-09-13T07:35:24.726Z,59.02
2023-09-13T07:37:51.386Z,58.99
2023-09-13T07:40:18.221Z,58.89
2023-09-13T07:42:44.852Z,58.72
2023-09-13T07:45:11.478Z,58.55
2023-09-13T07:47:38.182Z,58.39
2023-09-13T07:50:05.138Z,58.46
2023-09-13T07:52:42.502Z,58.11
2023-09-13T07:55:15.079Z,58.14
2023-09-13T07:57:41.697Z,58.18
2023-09-13T08:00:08.671Z,58.34
2023-09-13T08:02:35.211Z,58.27
2023-09-13T08:05:01.852Z,58.24
2023-09-13T08:07:28.529Z,58.44
2023-09-13T08:09:55.130Z,58.29
2023-09-13T08:12:21.669Z,58.37
2023-09-13T08:14:48.217Z,58.48
2023-09-13T08:17:14.762Z,58.31
2023-09-13T08:19:41.343Z,58.51
2023-09-13T08:22:09.723Z,58.52
2023-09-13T08:24:36.295Z,58.66
2023-09-13T08:27:02.842Z,58.54
2023-09-13T08:29:29.392Z,58.28
2023-09-13T08:31:55.939Z,58.65
2023-09-13T08:34:24.087Z,58.78
2023-09-13T08:36:57.317Z,58.99
2023-09-13T08:39:24.097Z,58.65
2023-09-13T08:41:54.664Z,58.88
2023-09-13T08:44:23.185Z,58.93
2023-09-13T08:46:51.732Z,58.94
2023-09-13T08:49:19.726Z,59.05
2023-09-13T08:51:47.764Z,58.95
2023-09-13T08:54:15.715Z,58.91
2023-09-13T08:56:43.902Z,58.72
2023-09-13T08:59:11.376Z,58.92
2023-09-13T09:01:39.000Z,58.76
2023-09-13T09:04:05.821Z,59.06
2023-09-13T09:06:33.030Z,59.24
2023-09-13T09:09:01.661Z,59.26
2023-09-13T09:11:31.666Z,59.31
2023-09-13T09:14:02.996Z,59.50
2023-09-13T09:16:31.943Z,59.85
2023-09-13T09:19:01.510Z,59.73
2023-09-13T09:21:28.992Z,59.98
2023-09-13T09:23:55.913Z,59.81
2023-09-13T09:26:22.450Z,59.65
2023-09-13T09:28:52.077Z,59.90
2023-09-13T09:31:26.052Z,59.89
2023-09-13T09:34:04.348Z,59.92
2023-09-13T09:36:35.943Z,60.26
2023-09-13T09:39:04.091Z,60.20
2023-09-13T09:41:34.922Z,60.14
2023-09-13T09:44:01.861Z,60.31
2023-09-13T09:46:28.903Z,60.57
2023-09-13T09:48:56.042Z,60.63
2023-09-13T09:51:22.891Z,60.30
2023-09-13T09:53:50.190Z,60.33
2023-09-13T09:56:17.541Z,60.55
2023-09-13T09:58:46.520Z,60.47
2023-09-13T10:01:13.480Z,60.41
2023-09-13T10:03:40.105Z,60.77
2023-09-13T10:06:14.699Z,60.57
2023-09-13T10:08:49.117Z,60.81
2023-09-13T10:11:17.821Z,60.92
2023-09-13T10:13:48.276Z,60.79
2023-09-13T10:16:16.751Z,60.89
2023-09-13T10:18:50.510Z,60.81
2023-09-13T10:21:26.210Z,60.99
2023-09-13T10:24:12.195Z,61.05
2023-09-13T10:26:39.685Z,61.40
2023-09-13T10:29:13.566Z,60.96
2023-09-13T10:31:46.129Z,61.18
2023-09-13T10:34:19.398Z,61.10
2023-09-13T10:36:57.034Z,61.19
2023-09-13T10:39:30.589Z,60.94
2023-09-13T10:42:07.313Z,60.96
2023-09-13T10:44:37.577Z,60.93
2023-09-13T10:47:08.629Z,60.85
2023-09-13T10:49:37.964Z,61.04
2023-09-13T10:52:06.416Z,60.90
2023-09-13T10:54:33.344Z,61.12
2023-09-13T10:56:59.990Z,61.03
2023-09-13T10:59:26.877Z,60.86
2023-09-13T11:01:53.529Z,61.12
2023-09-13T11:04:22.428Z,61.11
2023-09-13T11:06:50.131Z,61.33
2023-09-13T11:09:19.090Z,60.90
2023-09-13T11:11:50.356Z,61.01
2023-09-13T11:14:20.688Z,61.14
2023-09-13T11:16:48.209Z,61.09
2023-09-13T11:19:17.839Z,61.26
2023-09-13T11:21:52.417Z,61.04
2023-09-13T11:25:02.411Z,61.08
2023-09-13T11:27:30.629Z,61.22
2023-09-13T11:29:59.917Z,61.11
2023-09-13T11:32:31.410Z,61.15
2023-09-13T11:35:00.172Z,61.11
2023-09-13T11:37:28.246Z,60.96
2023-09-13T11:40:12.491Z,61.23
2023-09-13T11:42:52.096Z,60.93
2023-09-13T11:45:35.449Z,61.15
2023-09-13T11:48:03.973Z,60.95
2023-09-13T11:50:47.603Z,61.07
2023-09-13T11:53:18.174Z,60.78
2023-09-13T11:56:00.091Z,60.80
2023-09-13T11:58:51.692Z,60.81
2023-09-13T12:01:25.935Z,60.66
2023-09-13T12:04:23.862Z,60.95
2023-09-13T12:06:49.541Z,60.83
2023-09-13T12:09:23.846Z,60.93
2023-09-13T12:11:57.292Z,60.71
2023-09-13T12:14:40.953Z,60.73
2023-09-13T12:17:15.026Z,60.81
2023-09-13T12:19:41.725Z,60.77
2023-09-13T12:22:13.657Z,60.56
2023-09-13T12:24:50.317Z,60.73
2023-09-13T12:27:16.944Z,60.84
2023-09-13T12:29:48.013Z,60.80
2023-09-13T12:32:16.170Z,60.93
2023-09-13T12:34:43.334Z,60.85
2023-09-13T12:37:10.069Z,60.93
2023-09-13T12:39:36.664Z,60.81
2023-09-13T12:42:10.205Z,61.05
2023-09-13T12:44:38.261Z,60.77
2023-09-13T12:47:05.768Z,61.12
2023-09-13T12:49:32.274Z,61.35
2023-09-13T12:51:59.051Z,61.45
2023-09-13T12:54:25.804Z,61.62
2023-09-13T12:56:52.506Z,61.48
2023-09-13T12:59:19.098Z,61.72
2023-09-13T13:01:45.769Z,61.76
2023-09-13T13:04:12.653Z,61.95
2023-09-13T13:07:04.905Z,61.86
2023-09-13T13:09:31.931Z,61.92
2023-09-13T13:11:58.958Z,62.18
2023-09-13T13:14:28.235Z,61.85
2023-09-13T13:16:56.266Z,62.08
2023-09-13T13:22:12.941Z,61.95
2023-09-13T13:24:40.687Z,61.96
2023-09-13T13:27:07.646Z,62.16
2023-09-13T13:29:39.359Z,62.04
2023-09-13T13:32:07.016Z,62.33
2023-09-13T13:34:33.811Z,62.01
2023-09-13T13:37:00.504Z,62.14
2023-09-13T13:39:28.228Z,62.14
2023-09-13T13:41:54.814Z,62.21
2023-09-13T13:44:21.418Z,62.08
2023-09-13T13:46:47.979Z,61.96
2023-09-13T13:49:19.143Z,61.97
2023-09-13T13:51:50.375Z,62.10
2023-09-13T13:54:18.901Z,61.97
2023-09-13T13:56:46.089Z,62.17
2023-09-13T13:59:13.670Z,61.74
2023-09-13T14:01:40.822Z,61.90
2023-09-13T14:04:07.734Z,61.75
2023-09-13T14:06:34.431Z,61.98
2023-09-13T14:09:04.756Z,61.93
2023-09-13T14:11:31.713Z,62.00
2023-09-13T14:13:58.338Z,62.07
2023-09-13T14:16:24.920Z,62.02
2023-09-13T14:18:51.581Z,62.05
2023-09-13T14:21:18.216Z,61.80
2023-09-13T14:23:45.188Z,61.79
2023-09-13T14:26:11.994Z,62.02
2023-09-13T14:28:38.588Z,61.83
2023-09-13T14:31:07.978Z,61.91
2023-09-13T14:33:38.917Z,61.63
2023-09-13T14:36:05.723Z,61.76
2023-09-13T14:38:32.277Z,62.10
2023-09-13T14:40:58.992Z,62.20
2023-09-13T14:43:25.629Z,62.13
2023-09-13T14:45:52.343Z,62.36
2023-09-13T14:48:19.092Z,62.06
2023-09-13T14:50:45.734Z,62.34
2023-09-13T14:53:12.280Z,62.05
2023-09-13T14:55:39.598Z,62.27
2023-09-13T14:58:06.253Z,62.23
2023-09-13T15:00:33.041Z,62.18
2023-09-13T15:03:02.634Z,62.19
2023-09-13T15:05:29.295Z,62.32
2023-09-13T15:07:56.130Z,62.42
2023-09-13T15:10:22.838Z,62.22
2023-09-13T15:12:49.914Z,62.54
2023-09-13T15:15:16.645Z,62.31
2023-09-13T15:17:43.233Z,62.51
2023-09-13T15:20:11.149Z,62.25
2023-09-13T15:22:37.791Z,62.09
2023-09-13T15:25:04.824Z,62.31
2023-09-13T15:27:31.369Z,61.92
2023-09-13T15:29:58.690Z,62.17
2023-09-13T15:32:25.436Z,62.36
2023-09-13T15:34:52.126Z,62.16
2023-09-13T15:37:18.687Z,62.38
2023-09-13T15:39:45.812Z,61.96
2023-09-13T15:42:12.411Z,61.86
2023-09-13T15:44:39.078Z,61.97
2023-09-13T15:47:06.189Z,61.96
2023-09-13T15:49:32.822Z,62.08
2023-09-13T15:51:59.444Z,62.37
2023-09-13T15:54:26.512Z,62.43
2023-09-13T15:56:53.356Z,62.25
2023-09-13T15:59:19.966Z,62.42
2023-09-13T16:01:46.648Z,62.19
2023-09-13T16:04:13.271Z,62.04
2023-09-13T16:06:40.143Z,62.19
2023-09-13T16:09:07.327Z,62.12
2023-09-13T16:11:35.678Z,62.04
2023-09-13T16:14:03.599Z,61.81
2023-09-13T16:16:31.786Z,61.75
2023-09-13T16:18:58.458Z,61.64
2023-09-13T16:21:26.948Z,61.74
2023-09-13T16:23:53.798Z,61.79
2023-09-13T16:26:21.507Z,61.65
2023-09-13T16:28:48.303Z,61.73
2023-09-13T16:31:15.036Z,61.64
2023-09-13T16:33:41.752Z,62.15
2023-09-13T16:36:08.286Z,61.75
2023-09-13T16:38:34.830Z,61.92
2023-09-13T16:41:01.406Z,61.92
2023-09-13T16:43:27.970Z,61.72
2023-09-13T16:45:54.588Z,61.76
2023-09-13T16:48:33.630Z,61.87
2023-09-13T16:51:02.002Z,61.67
2023-09-13T16:53:28.694Z,61.93
2023-09-13T16:55:55.254Z,61.49
2023-09-13T16:58:21.921Z,61.54
2023-09-13T17:00:50.086Z,61.38
2023-09-13T17:03:17.012Z,61.18
2023-09-13T17:05:43.809Z,61.43
2023-09-13T17:08:10.353Z,61.52
2023-09-13T17:10:37.027Z,61.65
2023-09-13T17:13:03.990Z,61.81
2023-09-13T17:15:30.817Z,61.60
2023-09-13T17:17:57.655Z,61.44
2023-09-13T17:20:24.221Z,61.65
2023-09-13T17:22:50.838Z,61.42
2023-09-13T17:25:17.388Z,61.29
2023-09-13T17:27:44.028Z,61.22
2023-09-13T17:30:11.004Z,61.47
2023-09-13T17:32:37.550Z,61.50
2023-09-13T17:35:04.398Z,61.41
2023-09-13T17:37:31.041Z,61.27
2023-09-13T17:39:58.009Z,61.38
2023-09-13T17:42:24.796Z,61.63
2023-09-13T17:44:52.274Z,61.73
2023-09-13T17:47:22.447Z,61.50
2023-09-13T17:49:49.097Z,61.42
2023-09-13T17:52:15.643Z,61.65
2023-09-13T17:54:42.276Z,61.56
2023-09-13T17:57:08.914Z,61.53
2023-09-13T17:59:35.647Z,61.41
2023-09-13T18:02:02.355Z,61.50
2023-09-13T18:04:29.010Z,61.45
2023-09-13T18:06:56.025Z,61.25
2023-09-13T18:09:22.784Z,61.45
2023-09-13T18:11:52.892Z,61.50
2023-09-13T18:14:19.874Z,61.69
2023-09-13T18:16:46.636Z,61.41
2023-09-13T18:19:13.675Z,61.42
2023-09-13T18:21:42.002Z,61.31
2023-09-13T18:24:09.050Z,61.20
2023-09-13T18:26:35.687Z,61.33
2023-09-13T18:29:02.257Z,61.49
2023-09-13T18:31:28.793Z,61.54
2023-09-13T18:33:55.425Z,61.51
2023-09-13T18:36:22.097Z,61.45
2023-09-13T18:38:50.799Z,61.57
2023-09-13T18:41:17.458Z,61.36
2023-09-13T18:43:44.011Z,61.32
2023-09-13T18:46:10.979Z,61.56
2023-09-13T18:48:37.646Z,61.45
2023-09-13T18:51:07.406Z,61.54
2023-09-13T18:53:33.984Z,61.43
2023-09-13T18:56:01.123Z,61.17
2023-09-13T18:58:28.763Z,61.64
2023-09-13T19:01:03.192Z,61.26
2023-09-13T19:03:30.220Z,61.38
2023-09-13T19:06:02.004Z,61.50
2023-09-13T19:08:30.403Z,61.68
2023-09-13T19:10:58.356Z,61.65
2023-09-13T19:13:24.948Z,61.68
2023-09-13T19:16:02.624Z,61.61
2023-09-13T19:18:30.691Z,61.71
2023-09-13T19:20:57.797Z,61.73
2023-09-13T19:23:25.540Z,61.68
2023-09-13T19:25:55.786Z,61.63
2023-09-13T19:28:23.495Z,61.52
2023-09-13T19:30:51.536Z,61.63
2023-09-13T19:33:22.456Z,61.94
2023-09-13T19:35:49.174Z,61.92
2023-09-13T19:38:28.785Z,61.66
2023-09-13T19:40:56.471Z,61.80
2023-09-13T19:43:24.225Z,61.61
2023-09-13T19:45:52.654Z,61.83
2023-09-13T19:48:19.988Z,61.69
2023-09-13T19:50:58.090Z,61.83
2023-09-13T19:53:25.771Z,61.95
2023-09-13T19:55:52.690Z,61.93
2023-09-13T19:58:19.934Z,61.81
2023-09-13T20:00:48.698Z,61.77
2023-09-13T20:03:15.595Z,61.92
2023-09-13T20:05:42.506Z,61.98
2023-09-13T20:08:09.853Z,61.89
2023-09-13T20:10:36.650Z,61.91
2023-09-13T20:13:04.496Z,62.01
2023-09-13T20:15:31.188Z,61.92
2023-09-13T20:17:58.175Z,61.74
2023-09-13T20:20:27.600Z,61.83
2023-09-13T20:22:55.102Z,61.69
2023-09-13T20:25:21.814Z,61.70
2023-09-13T20:27:48.723Z,61.78
2023-09-13T20:30:15.508Z,61.80
2023-09-13T20:32:42.878Z,61.63
2023-09-13T20:35:09.728Z,61.70
2023-09-13T20:37:36.370Z,61.54
2023-09-13T20:40:05.259Z,61.70
2023-09-13T20:42:32.006Z,61.70
2023-09-13T20:44:58.646Z,61.80
2023-09-13T20:47:25.175Z,61.68
2023-09-13T20:49:51.728Z,61.98
2023-09-13T20:52:18.286Z,61.98
2023-09-13T20:54:45.075Z,61.91
2023-09-13T20:57:11.660Z,61.91
2023-09-13T20:59:39.365Z,62.11
2023-09-13T21:02:05.980Z,62.09
2023-09-13T21:04:35.921Z,61.82
2023-09-13T21:07:05.085Z,61.92
2023-09-13T21:09:31.744Z,61.85
2023-09-13T21:11:58.361Z,61.90
2023-09-13T21:14:24.903Z,61.99
2023-09-13T21:16:51.479Z,62.02
2023-09-13T21:19:19.358Z,62.13
2023-09-13T21:21:46.171Z,62.10
2023-09-13T21:24:12.958Z,62.15
2023-09-13T21:26:39.773Z,62.14
2023-09-13T21:29:06.994Z,62.01
2023-09-13T21:31:33.756Z,62.09
2023-09-13T21:34:00.413Z,62.34
2023-09-13T21:36:26.986Z,62.09
2023-09-13T21:38:53.591Z,62.13
2023-09-13T21:41:20.150Z,62.09
2023-09-13T21:43:46.724Z,62.19
2023-09-13T21:46:13.430Z,62.12
2023-09-13T21:48:42.237Z,61.94
2023-09-13T21:51:10.049Z,62.26
2023-09-13T21:53:36.649Z,62.19
2023-09-13T21:56:04.590Z,62.17
2023-09-13T21:58:31.365Z,62.15
2023-09-13T22:00:59.661Z,62.32
2023-09-13T22:03:32.958Z,62.22
2023-09-13T22:06:00.538Z,61.75
2023-09-13T22:08:27.479Z,61.99
2023-09-13T22:11:05.666Z,62.00
2023-09-13T22:13:32.502Z,61.80
2023-09-13T22:15:59.167Z,61.91
2023-09-13T22:18:26.603Z,61.92
2023-09-13T22:20:53.208Z,62.04
2023-09-13T22:23:21.763Z,61.75
2023-09-13T22:25:48.370Z,61.93
2023-09-13T22:28:15.210Z,61.89
2023-09-13T22:30:41.947Z,62.02
2023-09-13T22:33:08.850Z,62.22
2023-09-13T22:35:36.433Z,61.99
2023-09-13T22:38:03.217Z,62.02
2023-09-13T22:40:29.898Z,62.29
2023-09-13T22:42:56.594Z,62.14
2023-09-13T22:45:23.217Z,62.05
2023-09-13T22:47:49.885Z,61.99
2023-09-13T22:50:16.654Z,62.15
2023-09-13T22:52:43.235Z,62.01
2023-09-13T22:55:09.852Z,62.13
2023-09-13T22:57:37.144Z,62.28
2023-09-13T23:00:04.766Z,61.97
2023-09-13T23:02:32.183Z,62.02
2023-09-13T23:04:58.810Z,62.06
2023-09-13T23:07:25.462Z,62.07
2023-09-13T23:09:52.041Z,61.79
2023-09-13T23:12:18.609Z,62.14
2023-09-13T23:14:45.288Z,61.92
2023-09-13T23:17:12.800Z,62.02
2023-09-13T23:19:39.393Z,61.94
2023-09-13T23:22:06.641Z,62.10
2023-09-13T23:24:36.142Z,62.06
2023-09-13T23:27:03.719Z,61.93
2023-09-13T23:29:30.247Z,61.86
2023-09-13T23:31:59.142Z,62.04
2023-09-13T23:34:25.757Z,61.86
2023-09-13T23:36:52.872Z,62.00
2023-09-13T23:39:19.536Z,62.04
2023-09-13T23:41:46.592Z,61.94
2023-09-13T23:44:14.329Z,61.82
2023-09-13T23:46:40.930Z,61.81
2023-09-13T23:49:07.826Z,61.78
2023-09-13T23:51:34.632Z,61.83
2023-09-13T23:54:01.184Z,61.87
2023-09-13T23:56:27.742Z,61.74
2023-09-13T23:58:57.448Z,61.98
